Time;durP1;ratioP1;P1;durP2;ratioP2;P2;SDS_P1;SDS_P2;PMS_P1;PMS_P2;Temp;Humidity;BMP_temperature;BMP_pressure;BME280_temperature;BME280_humidity;BME280_pressure;Samples;Min_cycle;Max_cycle;Signal;HPM_P1;HPM_P2
2023/10/18 00:01:55;;;;;;;33.40;22.40;;;;;;;4.46;100.00;99910.97;4994515;28;20026;-85
2023/10/18 00:04:23;;;;;;;30.60;22.35;;;;;;;4.39;100.00;99909.41;4994359;28;20030;-85
2023/10/18 00:06:49;;;;;;;35.40;22.98;;;;;;;4.39;100.00;99906.84;4994517;28;20022;-85
2023/10/18 00:12:00;;;;;;;31.58;22.60;;;;;;;4.35;100.00;99902.59;5012439;28;20076;-85
2023/10/18 00:14:26;;;;;;;32.03;20.83;;;;;;;4.08;100.00;99857.50;4994274;28;20052;-85
2023/10/18 00:16:51;;;;;;;33.97;22.48;;;;;;;4.11;100.00;99866.03;4994483;28;20026;-85
2023/10/18 00:19:17;;;;;;;35.33;22.42;;;;;;;4.11;100.00;99860.88;5011589;28;20432;-85
2023/10/18 00:21:42;;;;;;;33.85;21.75;;;;;;;4.29;100.00;99894.94;5012663;28;20032;-85
2023/10/18 00:24:09;;;;;;;33.83;22.27;;;;;;;4.30;100.00;99899.22;5016117;28;20083;-85
2023/10/18 00:26:35;;;;;;;37.22;23.85;;;;;;;4.32;100.00;99911.22;5015645;28;20018;-85
2023/10/18 00:29:00;;;;;;;31.23;21.58;;;;;;;4.16;100.00;99902.03;4998294;28;20036;-84
2023/10/18 00:31:27;;;;;;;36.67;23.17;;;;;;;4.20;100.00;99912.28;5015622;28;20092;-85
2023/10/18 00:33:53;;;;;;;39.05;23.95;;;;;;;4.21;100.00;99913.13;5015678;28;20116;-85
2023/10/18 00:36:19;;;;;;;38.97;23.90;;;;;;;4.13;100.00;99904.66;5015758;28;20046;-85
2023/10/18 00:38:45;;;;;;;37.42;23.23;;;;;;;4.09;100.00;99900.44;4997994;28;20033;-85
2023/10/18 00:41:21;;;;;;;37.33;24.85;;;;;;;4.11;100.00;99891.81;4998237;28;20033;-85
2023/10/18 00:43:47;;;;;;;38.88;25.60;;;;;;;4.09;100.00;99903.88;4998101;28;20026;-85
2023/10/18 00:46:15;;;;;;;43.58;27.60;;;;;;;4.08;100.00;99891.84;5015604;28;20029;-85
2023/10/18 00:48:40;;;;;;;41.08;27.10;;;;;;;4.05;100.00;99880.78;4997844;28;20104;-85
2023/10/18 00:51:09;;;;;;;34.58;23.48;;;;;;;3.77;100.00;99837.41;5015560;28;20116;-85
2023/10/18 00:53:35;;;;;;;37.25;23.75;;;;;;;4.10;100.00;99886.69;4997825;28;20362;-85
2023/10/18 00:56:00;;;;;;;36.30;24.98;;;;;;;3.96;100.00;99880.03;4997982;28;20041;-85
2023/10/18 00:58:27;;;;;;;36.38;24.52;;;;;;;3.86;100.00;99867.31;5015228;28;20029;-84
2023/10/18 01:00:54;;;;;;;40.55;25.38;;;;;;;3.91;100.00;99876.66;4997501;28;20034;-85
2023/10/18 01:03:29;;;;;;;37.47;25.25;;;;;;;3.92;100.00;99870.66;4997694;28;20459;-85
2023/10/18 01:06:20;;;;;;;38.72;25.50;;;;;;;3.94;100.00;99870.63;5015424;28;20041;-85
2023/10/18 01:08:46;;;;;;;37.95;26.55;;;;;;;4.01;100.00;99892.84;4997602;28;20072;-84
2023/10/18 01:11:12;;;;;;;38.80;26.17;;;;;;;3.77;100.00;99852.00;5015036;28;20033;-85
2023/10/18 01:13:42;;;;;;;42.78;26.83;;;;;;;3.99;100.00;99894.59;4997396;28;20032;-85
2023/10/18 01:16:20;;;;;;;42.65;27.63;;;;;;;3.74;100.00;99856.31;5015144;28;20110;-85
2023/10/18 01:18:47;;;;;;;43.00;27.10;;;;;;;3.84;100.00;99867.34;5014944;28;20539;-84
2023/10/18 01:21:18;;;;;;;38.88;25.70;;;;;;;3.78;100.00;99851.13;5015004;28;20029;-85
2023/10/18 01:23:59;;;;;;;39.55;25.17;;;;;;;3.50;100.00;99810.34;5014584;28;20037;-84
2023/10/18 01:26:30;;;;;;;42.47;25.58;;;;;;;3.81;100.00;99849.34;4997307;28;20113;-85
2023/10/18 01:28:56;;;;;;;39.80;25.00;;;;;;;3.75;100.00;99852.03;5012312;28;20048;-85
2023/10/18 01:31:23;;;;;;;42.03;27.83;;;;;;;3.64;100.00;99831.59;5014582;28;20025;-85
2023/10/18 01:33:50;;;;;;;38.30;25.05;;;;;;;3.78;100.00;99858.84;4996469;28;20026;-85
2023/10/18 01:36:18;;;;;;;41.35;25.23;;;;;;;3.82;100.00;99869.09;4996953;28;20026;-84
2023/10/18 01:38:48;;;;;;;38.28;26.63;;;;;;;3.75;100.00;99857.19;5014467;28;20030;-84
2023/10/18 01:41:29;;;;;;;42.75;26.38;;;;;;;3.71;100.00;99850.38;4997184;28;20115;-84
2023/10/18 01:43:59;;;;;;;45.60;25.40;;;;;;;3.68;100.00;99855.56;4997033;28;20037;-85
2023/10/18 01:46:24;;;;;;;38.25;24.27;;;;;;;3.41;100.00;99816.50;4996691;28;20026;-85
2023/10/18 01:48:52;;;;;;;37.88;24.55;;;;;;;3.62;100.00;99853.91;5014397;28;20465;-85
2023/10/18 01:51:19;;;;;;;36.47;24.38;;;;;;;3.65;100.00;99855.63;5014532;28;20032;-85
2023/10/18 01:53:45;;;;;;;36.70;23.40;;;;;;;3.57;100.00;99842.84;5014065;28;20505;-84
2023/10/18 01:56:10;;;;;;;38.55;23.60;;;;;;;3.54;100.00;99844.59;4996732;28;20021;-84
2023/10/18 01:58:37;;;;;;;36.42;23.35;;;;;;;3.52;100.00;99852.38;4996334;28;20038;-84
2023/10/18 02:01:09;;;;;;;35.17;23.30;;;;;;;3.27;100.00;99808.09;5014036;28;20032;-85
2023/10/18 02:03:36;;;;;;;39.08;23.33;;;;;;;3.45;100.00;99840.44;4996511;28;20025;-84
2023/10/18 02:06:06;;;;;;;39.03;24.27;;;;;;;3.43;100.00;99844.78;4996738;28;20030;-84
2023/10/18 02:08:35;;;;;;;34.97;22.33;;;;;;;3.06;100.00;99788.66;4996373;28;20036;-84
2023/10/18 02:11:06;;;;;;;40.22;22.98;;;;;;;3.36;100.00;99833.72;5014237;28;20025;-84
2023/10/18 02:13:31;;;;;;;;;;;;;;;3.38;100.00;99842.28;4996739;28;20125;-84
2023/10/18 02:15:57;;;;;;;42.67;24.60;;;;;;;3.39;100.00;99848.28;4996320;28;19944;-84
2023/10/18 02:18:23;;;;;;;39.95;25.58;;;;;;;2.98;100.00;99769.91;5014052;28;20026;-85
2023/10/18 02:20:52;;;;;;;41.75;24.48;;;;;;;3.30;100.00;99825.25;4996015;28;20101;-84
2023/10/18 02:23:18;;;;;;;38.47;24.25;;;;;;;2.95;100.00;99767.38;5013869;28;20061;-85
2023/10/18 02:25:44;;;;;;;41.03;23.67;;;;;;;3.22;100.00;99823.63;4995944;28;20042;-85
2023/10/18 02:28:24;;;;;;;36.90;23.98;;;;;;;3.12;100.00;99798.00;4996107;28;20052;-84
2023/10/18 02:30:55;;;;;;;39.28;24.88;;;;;;;3.10;100.00;99794.63;5013627;28;20036;-85
2023/10/18 02:33:38;;;;;;;37.00;24.23;;;;;;;3.22;100.00;99823.63;4996050;28;20068;-85
2023/10/18 02:38:52;;;;;;;37.25;24.10;;;;;;;2.82;100.00;99771.81;5013633;28;20560;-84
2023/10/18 02:41:21;;;;;;;40.63;25.48;;;;;;;3.28;100.00;99850.13;4995979;28;20036;-85
2023/10/18 02:43:49;;;;;;;46.60;27.42;;;;;;;3.21;100.00;99834.78;4995591;28;20038;-85
2023/10/18 02:46:24;;;;;;;44.17;27.35;;;;;;;3.29;100.00;99855.28;5012664;28;20053;-84
2023/10/18 02:48:51;;;;;;;41.22;25.17;;;;;;;3.18;100.00;99850.25;4995420;28;20516;-85
2023/10/18 02:51:22;;;;;;;41.65;26.10;;;;;;;2.96;100.00;99818.81;5013131;28;20029;-84
2023/10/18 02:54:07;;;;;;;41.25;26.80;;;;;;;3.13;100.00;99852.06;4995493;28;20021;-85
2023/10/18 02:56:37;;;;;;;39.05;26.20;;;;;;;2.84;100.00;99816.41;4995504;28;20048;-85
2023/10/18 02:59:06;;;;;;;42.95;26.17;;;;;;;3.06;100.00;99862.44;5013108;28;20036;-85
2023/10/18 03:01:34;;;;;;;40.35;24.25;;;;;;;2.59;100.00;99776.44;4995029;28;20022;-85
2023/10/18 03:04:00;;;;;;;37.78;24.88;;;;;;;2.66;100.00;99790.94;4995621;28;20116;-85
2023/10/18 03:06:28;;;;;;;38.67;25.65;;;;;;;3.03;100.00;99849.59;4995500;28;20076;-85
2023/10/18 03:08:58;;;;;;;41.75;25.65;;;;;;;2.84;100.00;99813.84;4995419;28;20036;-84
2023/10/18 03:11:23;;;;;;;40.83;26.45;;;;;;;2.91;100.00;99830.91;4995300;28;20057;-85
2023/10/18 03:13:51;;;;;;;43.45;27.63;;;;;;;2.72;100.00;99794.25;5012633;28;20044;-84
2023/10/18 03:18:55;;;;;;;45.50;26.85;;;;;;;2.96;100.00;99838.56;5012890;28;20037;-85
2023/10/18 03:21:20;;;;;;;40.42;27.38;;;;;;;3.03;100.00;99847.88;4995288;28;20040;-85
2023/10/18 03:23:52;;;;;;;41.33;25.60;;;;;;;2.96;100.00;99839.41;4995005;28;20030;-85
2023/10/18 03:26:35;;;;;;;44.75;26.80;;;;;;;2.94;100.00;99835.13;4995141;28;20021;-84
2023/10/18 03:29:12;;;;;;;43.60;26.02;;;;;;;2.99;100.00;99846.22;4994966;28;20042;-84
2023/10/18 03:31:43;;;;;;;43.42;26.98;;;;;;;2.74;100.00;99809.69;5012538;28;20042;-84
2023/10/18 03:34:15;;;;;;;39.17;25.92;;;;;;;2.83;100.00;99832.72;5012558;28;20029;-84
2023/10/18 03:36:49;;;;;;;44.53;26.80;;;;;;;2.83;100.00;99832.72;5020733;28;20100;-85
2023/10/18 03:39:18;;;;;;;44.40;28.95;;;;;;;2.78;100.00;99823.34;5032148;28;20034;-85
2023/10/18 03:41:46;;;;;;;47.08;28.25;;;;;;;2.73;100.00;99815.69;5032114;28;20021;-85
2023/10/18 03:44:13;;;;;;;44.83;27.33;;;;;;;2.57;100.00;99785.88;5032304;28;20044;-85
2023/10/18 03:46:39;;;;;;;47.72;28.65;;;;;;;2.69;100.00;99807.13;5014018;28;20029;-85
2023/10/18 03:49:15;;;;;;;45.35;28.42;;;;;;;2.56;100.00;99781.59;5014282;28;20477;-84
2023/10/18 03:51:41;;;;;;;44.95;27.58;;;;;;;2.74;100.00;99814.84;5014055;28;20519;-85
2023/10/18 03:54:12;;;;;;;48.47;29.95;;;;;;;2.71;100.00;99822.56;5032530;28;20033;-84
2023/10/18 03:56:38;;;;;;;54.25;32.85;;;;;;;2.74;100.00;99819.97;5013786;28;20727;-85
2023/10/18 03:59:20;;;;;;;52.13;32.13;;;;;;;2.56;100.00;99792.72;5031976;28;20061;-84
2023/10/18 04:04:35;;;;;;;59.25;35.22;;;;;;;2.78;100.00;99823.34;5032173;28;20044;-85
2023/10/18 04:07:20;;;;;;;53.38;33.78;;;;;;;2.70;100.00;99803.72;5014418;28;20056;-84
2023/10/18 04:09:53;;;;;;;54.58;31.85;;;;;;;2.52;100.00;99762.78;5014112;28;20033;-84
2023/10/18 04:12:26;;;;;;;53.60;33.65;;;;;;;2.73;100.00;99806.25;5014061;28;20059;-85
2023/10/18 04:15:19;;;;;;;50.17;32.50;;;;;;;2.62;100.00;99789.25;5013694;28;20373;-85
2023/10/18 04:17:44;;;;;;;49.72;31.13;;;;;;;2.67;100.00;99792.63;5031799;28;20516;-85
2023/10/18 04:20:22;;;;;;;52.78;32.38;;;;;;;2.41;100.00;99754.38;5013833;28;20083;-85
2023/10/18 04:22:51;;;;;;;49.40;31.77;;;;;;;2.35;100.00;99747.56;5013820;28;20029;-85
2023/10/18 04:25:25;;;;;;;49.13;30.63;;;;;;;2.41;100.00;99754.38;5014081;28;20033;-85
2023/10/18 04:27:52;;;;;;;52.50;31.23;;;;;;;2.58;100.00;99785.88;5031677;28;20046;-84
2023/10/18 04:30:22;;;;;;;49.88;30.92;;;;;;;1.89;100.00;99671.00;5032040;28;20039;-85
2023/10/18 04:32:54;;;;;;;50.40;31.33;;;;;;;2.37;100.00;99757.84;5013843;28;20394;-85
2023/10/18 04:35:25;;;;;;;47.25;29.90;;;;;;;2.37;100.00;99757.84;5031524;28;20029;-85
2023/10/18 04:37:54;;;;;;;50.35;29.35;;;;;;;2.55;100.00;99780.75;5031851;28;20030;-85
2023/10/18 04:40:22;;;;;;;45.17;31.17;;;;;;;2.52;100.00;99775.66;5013682;28;20034;-85
2023/10/18 04:42:50;;;;;;;51.47;31.13;;;;;;;2.30;100.00;99743.34;5013694;28;20025;-85
2023/10/18 04:45:18;;;;;;;50.45;32.05;;;;;;;2.46;100.00;99779.16;5031649;28;20021;-85
2023/10/18 04:47:49;;;;;;;49.25;30.45;;;;;;;2.49;100.00;99789.41;5013482;28;20025;-85
2023/10/18 04:50:29;;;;;;;47.70;29.02;;;;;;;2.36;100.00;99768.97;5031398;28;20024;-85
2023/10/18 04:52:57;;;;;;;51.08;29.13;;;;;;;2.24;100.00;99752.84;5013410;28;20432;-85
2023/10/18 04:55:25;;;;;;;49.33;29.73;;;;;;;2.29;100.00;99769.94;5013759;28;20021;-85
2023/10/18 04:57:53;;;;;;;47.88;29.45;;;;;;;2.13;100.00;99767.50;5013420;28;20116;-85
2023/10/18 05:00:35;;;;;;;49.10;30.08;;;;;;;2.14;100.00;99773.50;5013419;28;20536;-85
2023/10/18 05:03:06;;;;;;;47.05;29.92;;;;;;;1.84;100.00;99731.84;5031522;28;20029;-85
2023/10/18 05:05:37;;;;;;;49.53;30.30;;;;;;;1.67;100.00;99711.47;5013739;28;20060;-85
2023/10/18 05:08:04;;;;;;;47.55;29.83;;;;;;;2.09;100.00;99770.13;5031470;28;20061;-85
2023/10/18 05:10:29;;;;;;;53.83;31.52;;;;;;;2.09;100.00;99770.97;5016821;28;20095;-85
2023/10/18 05:13:01;;;;;;;58.83;35.75;;;;;;;1.84;100.00;99741.28;5016646;28;20457;-85
2023/10/18 05:15:32;;;;;;;58.53;34.15;;;;;;;1.97;100.00;99778.81;5017077;28;20029;-85
2023/10/18 05:20:58;;;;;;;93.03;47.65;;;;;;;1.74;100.00;99720.81;4953957;29;20039;-85
2023/10/18 05:23:25;;;;;;;78.22;43.88;;;;;;;1.94;100.00;99755.75;4954119;29;20066;-85
2023/10/18 05:28:46;;;;;;;64.75;36.83;;;;;;;1.99;100.00;99771.94;4954061;28;20055;-85
2023/10/18 05:34:04;;;;;;;61.38;36.33;;;;;;;1.87;100.00;99770.34;4953780;29;20520;-85
2023/10/18 05:36:34;;;;;;;56.22;35.95;;;;;;;1.90;100.00;99766.91;4953702;28;20554;-85
2023/10/18 05:41:46;;;;;;;79.47;46.53;;;;;;;1.89;100.00;99753.19;4915365;29;20040;-85
2023/10/18 05:44:12;;;;;;;69.28;41.40;;;;;;;1.94;100.00;99750.59;4915492;29;20040;-85
2023/10/18 05:46:39;;;;;;;70.85;42.92;;;;;;;2.12;100.00;99770.13;4915608;29;20040;-85
2023/10/18 05:49:13;;;;;;;68.80;42.20;;;;;;;2.08;100.00;99745.31;4915417;29;20543;-85
2023/10/18 05:51:51;;;;;;;69.38;43.20;;;;;;;2.36;100.00;99780.13;4899392;29;20071;-85
2023/10/18 05:54:19;;;;;;;78.90;45.03;;;;;;;2.31;100.00;99763.88;4915855;29;20087;-85
2023/10/18 05:56:49;;;;;;;72.10;43.13;;;;;;;2.41;100.00;99777.50;4921524;29;20134;-85
2023/10/18 06:01:47;;;;;;;64.22;42.88;;;;;;;2.46;100.00;99773.16;4953181;29;20035;-85
2023/10/18 06:04:14;;;;;;;65.35;40.42;;;;;;;2.07;100.00;99712.78;4953532;29;20393;-85
2023/10/18 06:06:40;;;;;;;67.97;41.28;;;;;;;2.33;100.00;99754.47;4940144;28;20133;-85
2023/10/18 06:09:11;;;;;;;81.13;49.00;;;;;;;2.67;100.00;99782.34;4956456;28;20212;-85
2023/10/18 06:11:37;;;;;;;57.60;38.75;;;;;;;2.55;100.00;99751.63;4972237;28;20039;-85
2023/10/18 06:14:05;;;;;;;50.45;32.53;;;;;;;2.70;100.00;99761.72;4956120;28;20030;-85
2023/10/18 06:16:34;;;;;;;53.90;33.60;;;;;;;2.66;100.00;99739.50;4956433;28;20035;-85
2023/10/18 06:19:06;;;;;;;62.63;41.55;;;;;;;2.72;100.00;99786.53;5006004;28;20201;-85
2023/10/18 06:21:37;;;;;;;61.55;36.30;;;;;;;2.25;100.00;99756.25;5033339;28;20021;-85
2023/10/18 06:24:10;;;;;;;81.90;49.17;;;;;;;2.30;100.00;99785.31;5033540;28;20025;-85
2023/10/18 06:26:39;;;;;;;111.43;70.53;;;;;;;2.18;100.00;99783.72;5015442;28;20021;-86
2023/10/18 06:29:12;;;;;;;86.75;55.17;;;;;;;2.10;100.00;99782.09;5033393;28;20045;-86
2023/10/18 06:31:46;;;;;;;72.07;44.03;;;;;;;2.17;100.00;99796.59;5015581;28;20056;-86
2023/10/18 06:34:17;;;;;;;49.67;31.20;;;;;;;2.15;100.00;99795.75;5015501;28;20061;-86
2023/10/18 06:36:42;;;;;;;49.15;29.65;;;;;;;2.20;100.00;99791.44;5015467;28;20041;-85
2023/10/18 06:39:15;;;;;;;57.67;34.25;;;;;;;2.31;100.00;99787.00;5015350;28;20453;-86
2023/10/18 06:41:43;;;;;;;79.43;45.92;;;;;;;2.41;100.00;99775.78;5015484;28;20053;-85
2023/10/18 06:44:11;;;;;;;66.70;39.67;;;;;;;2.82;100.00;99805.28;5015375;28;20037;-85
2023/10/18 06:46:38;;;;;;;63.55;37.67;;;;;;;3.14;100.00;99786.84;5015215;28;20025;-86
2023/10/18 06:49:10;;;;;;;63.50;38.70;;;;;;;3.54;100.00;99791.41;5014979;28;20044;-86
2023/10/18 06:51:40;;;;;;;67.57;39.83;;;;;;;3.62;100.00;99802.41;5015540;28;20091;-86
2023/10/18 06:54:12;;;;;;;61.83;35.47;;;;;;;3.23;100.00;99767.84;5015508;28;20112;-85
2023/10/18 06:56:45;;;;;;;51.22;31.77;;;;;;;3.03;100.00;99746.69;5015357;28;20072;-85
2023/10/18 06:59:11;;;;;;;46.13;29.40;;;;;;;3.23;100.00;99791.00;5015157;28;20469;-86
2023/10/18 07:01:54;;;;;;;46.95;30.08;;;;;;;3.11;100.00;99768.84;5032888;28;20036;-85
2023/10/18 07:04:34;;;;;;;45.75;28.33;;;;;;;3.35;100.00;99789.97;5015098;28;20128;-85
2023/10/18 07:07:00;;;;;;;48.97;30.75;;;;;;;3.10;100.00;99751.72;5032646;28;20040;-85
2023/10/18 07:09:26;;;;;;;48.75;33.05;;;;;;;3.11;100.00;99752.56;5014928;28;20025;-85
2023/10/18 07:12:03;;;;;;;46.25;28.88;;;;;;;3.14;100.00;99732.78;5014754;28;20025;-85
2023/10/18 07:14:30;;;;;;;46.95;28.45;;;;;;;3.53;100.00;99779.38;5032735;28;20437;-85
2023/10/18 07:17:00;;;;;;;40.88;25.52;;;;;;;3.78;100.00;99779.84;5014620;28;20029;-86
2023/10/18 07:19:26;;;;;;;41.10;26.00;;;;;;;3.84;100.00;99747.97;5032264;28;20141;-85
2023/10/18 07:21:53;;;;;;;42.65;27.33;;;;;;;4.11;100.00;99770.66;5032192;28;20476;-85
2023/10/18 07:24:20;;;;;;;43.08;28.08;;;;;;;4.22;100.00;99771.31;5014369;28;20029;-85
2023/10/18 07:26:47;;;;;;;48.15;29.52;;;;;;;4.14;100.00;99744.84;5032213;28;20045;-85
2023/10/18 07:29:14;;;;;;;42.85;27.25;;;;;;;4.08;100.00;99713.16;5014803;28;20388;-85
2023/10/18 07:31:42;;;;;;;45.15;27.50;;;;;;;4.58;100.00;99766.31;5014098;28;20026;-85
2023/10/18 07:34:08;;;;;;;51.83;29.60;;;;;;;4.47;100.00;99719.28;5014319;28;20099;-85
2023/10/18 07:36:44;;;;;;;49.75;30.63;;;;;;;4.65;100.00;99767.06;5014386;28;20037;-85
2023/10/18 07:39:16;;;;;;;49.70;32.35;;;;;;;4.53;100.00;99744.94;5032388;28;20028;-85
2023/10/18 07:41:41;;;;;;;;;;;;;;;4.87;100.00;99772.59;5014899;28;20030;-85
2023/10/18 07:44:06;;;;;;;53.13;31.75;;;;;;;4.64;100.00;99709.44;5032223;28;19913;-85
2023/10/18 07:46:39;;;;;;;44.20;29.27;;;;;;;5.29;100.00;99772.53;5014350;28;20064;-86
2023/10/18 07:49:15;;;;;;;42.60;27.65;;;;;;;5.32;100.00;99764.72;5014295;28;20457;-85
2023/10/18 07:51:59;;;;;;;42.15;27.50;;;;;;;5.43;100.00;99773.91;5014322;28;20665;-86
2023/10/18 07:54:24;;;;;;;43.53;28.20;;;;;;;5.59;100.00;99750.28;5032258;28;20080;-85
2023/10/18 07:56:49;;;;;;;42.95;28.10;;;;;;;5.71;100.00;99731.91;5031588;28;20025;-85
2023/10/18 07:59:32;;;;;;;44.53;27.77;;;;;;;5.90;100.00;99747.75;5031850;28;20029;-85
2023/10/18 08:05:01;;;;;;;45.83;29.75;;;;;;;6.05;100.00;99767.25;4989233;28;20117;-85
2023/10/18 08:07:29;;;;;;;42.42;27.88;;;;;;;6.27;100.00;99778.72;4972414;28;20037;-86
2023/10/18 08:09:57;;;;;;;41.45;29.05;;;;;;;6.28;100.00;99772.66;4989210;28;20121;-86
2023/10/18 08:12:30;;;;;;;46.83;29.90;;;;;;;6.38;100.00;99763.75;4973770;28;20038;-86
2023/10/18 08:14:56;;;;;;;42.17;27.92;;;;;;;6.29;100.00;99724.38;4989996;28;20161;-86
2023/10/18 08:22:47;;;;;;;43.85;28.45;;;;;;;6.54;100.00;99722.78;4983977;28;20046;-86
2023/10/18 08:25:31;;;;;;;36.90;24.98;;;;;;;6.66;100.00;99747.47;4966906;28;20066;-85
2023/10/18 08:27:57;;;;;;;38.25;27.25;;;;;;;6.71;100.00;99748.16;4983992;28;20121;-85
2023/10/18 08:30:24;;;;;;;37.58;26.73;;;;;;;6.81;100.00;99748.72;4973707;28;20058;-86
2023/10/18 08:32:52;;;;;;;40.22;25.35;;;;;;;6.81;100.00;99749.56;4973233;28;20473;-85
2023/10/18 08:35:20;;;;;;;36.85;26.88;;;;;;;6.78;100.00;99743.63;4973550;28;20497;-86
2023/10/18 08:37:45;;;;;;;43.75;29.35;;;;;;;6.88;100.00;99739.91;4989966;28;20084;-86
2023/10/18 08:40:16;;;;;;;43.72;29.17;;;;;;;6.95;100.00;99747.44;5013011;28;20041;-86
2023/10/18 08:42:50;;;;;;;44.60;29.27;;;;;;;7.03;100.00;99752.38;5013761;28;20129;-86
2023/10/18 08:45:21;;;;;;;42.80;28.17;;;;;;;6.99;100.00;99733.50;5016981;28;20057;-86
2023/10/18 08:47:49;;;;;;;46.15;29.30;;;;;;;7.12;100.00;99739.16;5035645;28;20385;-86
2023/10/18 08:50:17;;;;;;;39.08;26.98;;;;;;;6.87;100.00;99691.59;5017600;28;20021;-86
2023/10/18 08:52:48;;;;;;;35.00;24.70;;;;;;;7.21;100.00;99725.91;5017445;28;20029;-86
2023/10/18 08:55:22;;;;;;;37.75;26.08;;;;;;;7.29;100.00;99730.84;5017518;28;20033;-86
2023/10/18 08:57:54;;;;;;;36.75;26.38;;;;;;;7.30;100.00;99723.94;5034700;28;20029;-86
2023/10/18 09:02:50;;;;;;;29.88;21.60;;;;;;;7.07;100.00;99693.56;5034614;28;20061;-86
2023/10/18 09:05:16;;;;;;;35.13;22.90;;;;;;;7.17;100.00;99700.16;5016827;28;20076;-86
2023/10/18 09:07:45;;;;;;;35.03;24.13;;;;;;;7.14;100.00;99697.66;5034833;28;20033;-86
2023/10/18 09:10:13;;;;;;;32.83;23.27;;;;;;;7.24;100.00;99715.44;5034093;28;20060;-86
2023/10/18 09:15:28;;;;;;;31.73;22.98;;;;;;;7.12;100.00;99682.19;5034187;28;20108;-86
2023/10/18 09:17:55;;;;;;;33.55;23.02;;;;;;;7.21;100.00;99705.19;5034218;28;20557;-87
2023/10/18 09:20:25;;;;;;;31.40;22.48;;;;;;;7.35;100.00;99709.91;5016317;28;20029;-86
2023/10/18 09:22:52;;;;;;;34.25;23.67;;;;;;;7.35;100.00;99698.72;5016125;28;20361;-87
2023/10/18 09:25:20;;;;;;;28.42;21.27;;;;;;;7.15;100.00;99658.75;5016293;28;20386;-87
2023/10/18 09:27:46;;;;;;;29.77;21.42;;;;;;;7.54;100.00;99720.50;5016169;28;20057;-86
2023/10/18 09:30:18;;;;;;;35.03;23.52;;;;;;;7.46;100.00;99694.03;5033971;28;20079;-86
2023/10/18 09:32:45;;;;;;;34.17;25.42;;;;;;;7.63;100.00;99712.47;5034043;28;20485;-86
2023/10/18 09:35:11;;;;;;;36.38;25.92;;;;;;;7.73;100.00;99715.56;5033732;28;20034;-86
2023/10/18 09:37:36;;;;;;;35.90;25.25;;;;;;;7.70;100.00;99679.38;5015964;28;20033;-86
2023/10/18 09:40:03;;;;;;;40.33;25.70;;;;;;;7.91;100.00;99703.72;5015899;28;20115;-86
2023/10/18 09:42:29;;;;;;;36.10;26.52;;;;;;;7.81;100.00;99692.00;5016140;28;20105;-86
2023/10/18 09:44:54;;;;;;;33.60;23.30;;;;;;;7.90;100.00;99700.28;5015860;28;20095;-86
2023/10/18 09:47:23;;;;;;;30.35;20.30;;;;;;;7.91;100.00;99689.00;5011249;28;20042;-86
2023/10/18 09:49:50;;;;;;;26.35;19.42;;;;;;;7.86;100.00;99701.28;4971962;28;20039;-86
2023/10/18 09:52:16;;;;;;;26.45;18.92;;;;;;;7.91;100.00;99693.34;4971951;28;20043;-86
2023/10/18 09:54:51;;;;;;;30.85;21.92;;;;;;;8.09;100.00;99700.50;4971676;28;20046;-86
2023/10/18 09:57:24;;;;;;;31.02;20.85;;;;;;;8.15;100.00;99691.63;4972511;28;20046;-86
2023/10/18 09:59:54;;;;;;;30.70;22.42;;;;;;;8.14;100.00;99683.03;4972292;28;20061;-86
2023/10/18 10:02:21;;;;;;;30.85;20.83;;;;;;;8.34;100.00;99691.81;4972060;28;20045;-86
2023/10/18 10:04:52;;;;;;;24.88;19.10;;;;;;;8.28;100.00;99679.91;4972320;28;20042;-86
2023/10/18 10:07:27;;;;;;;29.08;20.02;;;;;;;8.28;100.00;99671.28;4971836;28;20494;-87
2023/10/18 10:10:07;;;;;;;28.83;18.42;;;;;;;8.29;100.00;99673.81;4971792;28;20074;-86
2023/10/18 10:12:33;;;;;;;24.00;17.88;;;;;;;8.12;100.00;99638.09;4971996;28;20050;-86
2023/10/18 10:14:58;;;;;;;20.02;14.02;;;;;;;7.99;100.00;99619.56;4971607;28;20248;-86
2023/10/18 10:17:28;;;;;;;20.13;13.15;;;;;;;8.33;96.87;99654.63;4973860;28;20121;-86
2023/10/18 10:19:58;;;;;;;19.27;13.30;;;;;;;8.35;96.62;99652.84;4979200;28;20030;-86
2023/10/18 10:22:25;;;;;;;15.40;11.85;;;;;;;8.36;94.95;99638.13;5015186;28;20423;-86
2023/10/18 10:25:04;;;;;;;15.63;11.65;;;;;;;8.53;94.61;99669.50;5015391;28;20429;-86
2023/10/18 10:32:48;;;;;;;15.30;10.85;;;;;;;8.53;93.19;99658.28;5013148;28;20473;-86
2023/10/18 10:35:17;;;;;;;14.10;10.50;;;;;;;8.44;93.10;99639.53;5012707;28;20060;-86
2023/10/18 10:37:47;;;;;;;15.05;10.98;;;;;;;8.51;91.93;99653.13;5012886;28;20033;-85
2023/10/18 10:43:01;;;;;;;;;;;;;;;8.66;89.86;99638.72;5013546;28;20035;-86
2023/10/18 10:45:48;;;;;;;18.33;10.68;;;;;;;8.46;87.82;99592.75;5012961;28;20349;-86
2023/10/18 10:51:06;;;;;;;35.50;16.88;;;;;;;8.55;87.78;99597.59;5012899;28;20045;-85
2023/10/18 10:53:50;;;;;;;12.75;9.80;;;;;;;8.82;87.07;99625.97;5012780;28;20477;-86
2023/10/18 10:56:36;;;;;;;18.55;11.45;;;;;;;8.82;87.50;99623.38;5014549;28;20037;-86
2023/10/18 11:04:46;;;;;;;22.88;14.98;;;;;;;8.82;86.99;99605.22;5032117;28;20116;-86
2023/10/18 11:07:21;;;;;;;13.48;9.80;;;;;;;8.53;88.61;99557.88;5031133;28;20404;-86
2023/10/18 11:09:50;;;;;;;12.93;10.02;;;;;;;8.74;87.20;99570.00;5032300;28;20049;-86
2023/10/18 11:12:17;;;;;;;16.58;11.77;;;;;;;8.96;87.20;99603.72;5014226;28;20116;-85
2023/10/18 11:14:43;;;;;;;14.23;10.52;;;;;;;8.76;84.45;99554.34;5012451;28;20053;-84
2023/10/18 11:19:51;;;;;;;14.27;9.10;;;;;;;8.98;85.06;99588.94;5011992;28;20385;-85
2023/10/18 11:22:19;;;;;;;13.32;8.88;;;;;;;9.06;86.53;99601.63;4994504;28;20033;-84
2023/10/18 11:24:55;;;;;;;14.68;9.10;;;;;;;8.94;84.83;99579.59;5012269;28;20022;-84
2023/10/18 11:27:33;;;;;;;15.27;10.85;;;;;;;8.84;83.80;99564.41;4990925;28;20474;-84
2023/10/18 11:32:48;;;;;;;14.05;10.27;;;;;;;9.12;83.73;99583.16;5021154;28;20036;-85
2023/10/18 11:35:25;;;;;;;14.35;10.18;;;;;;;8.83;84.42;99526.38;5002140;28;20025;-85
2023/10/18 11:37:51;;;;;;;22.90;17.42;;;;;;;9.18;83.56;99575.09;4969004;28;20058;-85
2023/10/18 11:40:29;;;;;;;16.00;12.98;;;;;;;9.02;84.78;99539.44;4940413;29;20067;-85
2023/10/18 11:43:05;;;;;;;11.93;8.20;;;;;;;9.18;85.99;99580.28;4931691;29;20122;-84
2023/10/18 11:45:36;;;;;;;11.10;7.20;;;;;;;9.21;84.69;99571.53;4916140;29;20044;-85
2023/10/18 11:48:05;;;;;;;11.02;8.02;;;;;;;8.87;84.13;99518.41;4915858;29;20051;-85
2023/10/18 11:50:47;;;;;;;14.48;8.65;;;;;;;9.31;84.48;99571.97;4931956;29;20040;-85
2023/10/18 11:53:14;;;;;;;12.73;9.55;;;;;;;9.14;84.43;99529.41;4915898;29;20160;-85
2023/10/18 11:55:52;;;;;;;15.32;11.10;;;;;;;9.42;84.91;99562.81;4916169;29;20183;-84
2023/10/18 11:58:18;;;;;;;14.75;9.80;;;;;;;9.21;84.91;99528.19;4932306;29;20048;-84
2023/10/18 12:00:47;;;;;;;25.92;19.33;;;;;;;9.20;82.31;99515.28;4932287;29;20044;-85
2023/10/18 12:03:13;;;;;;;35.00;28.63;;;;;;;9.22;83.03;99510.84;4932221;29;20475;-85
2023/10/18 12:05:42;;;;;;;18.17;14.60;;;;;;;9.38;84.08;99527.47;4916353;29;20089;-85
2023/10/18 12:08:12;;;;;;;17.85;10.60;;;;;;;9.40;83.96;99517.88;4939560;28;20602;-84
2023/10/18 12:10:38;;;;;;;12.35;9.80;;;;;;;9.38;83.73;99506.69;4978760;28;20038;-85
2023/10/18 12:13:12;;;;;;;14.50;10.35;;;;;;;9.31;84.60;99494.00;4994325;28;20033;-84
2023/10/18 12:15:38;;;;;;;12.50;10.05;;;;;;;9.54;84.73;99532.00;5012219;28;20087;-84
2023/10/18 12:18:05;;;;;;;12.40;9.98;;;;;;;9.50;84.84;99529.53;5013195;28;20551;-84
2023/10/18 12:20:42;;;;;;;15.40;9.95;;;;;;;9.48;85.34;99523.56;5016408;28;20496;-84
2023/10/18 12:23:12;;;;;;;14.90;10.90;;;;;;;9.44;86.06;99509.03;5016053;28;20071;-84
2023/10/18 12:25:44;;;;;;;18.52;14.27;;;;;;;9.38;84.55;99496.28;5016106;28;20026;-84
2023/10/18 12:28:15;;;;;;;18.15;14.43;;;;;;;9.38;84.51;99490.25;4998219;28;20094;-84
2023/10/18 12:30:44;;;;;;;18.13;14.07;;;;;;;9.42;84.09;99492.63;4998577;28;20030;-84
2023/10/18 12:33:22;;;;;;;34.70;27.88;;;;;;;9.36;84.51;99482.53;5015743;28;20117;-85